sensor_id;sensor_type;location;lat;lon;timestamp;temperature;humidity
45906;DHT22;31619;49.008;12.106;2022-07-29T00:00:39;21.70;87.50
45906;DHT22;31619;49.008;12.106;2022-07-29T00:03:05;21.70;89.10
45906;DHT22;31619;49.008;12.106;2022-07-29T00:05:31;21.80;89.40
45906;DHT22;31619;49.008;12.106;2022-07-29T00:07:56;21.80;88.10
45906;DHT22;31619;49.008;12.106;2022-07-29T00:10:22;21.80;87.60
45906;DHT22;31619;49.008;12.106;2022-07-29T00:12:48;21.80;87.60
45906;DHT22;31619;49.008;12.106;2022-07-29T00:15:14;21.80;87.30
45906;DHT22;31619;49.008;12.106;2022-07-29T00:17:40;21.80;87.00
45906;DHT22;31619;49.008;12.106;2022-07-29T00:20:06;21.80;86.80
45906;DHT22;31619;49.008;12.106;2022-07-29T00:22:32;21.90;87.00
45906;DHT22;31619;49.008;12.106;2022-07-29T00:24:58;21.80;87.00
45906;DHT22;31619;49.008;12.106;2022-07-29T00:27:23;21.90;87.50
45906;DHT22;31619;49.008;12.106;2022-07-29T00:29:49;21.90;86.20
45906;DHT22;31619;49.008;12.106;2022-07-29T00:32:15;21.90;86.90
45906;DHT22;31619;49.008;12.106;2022-07-29T00:34:40;21.90;86.00
45906;DHT22;31619;49.008;12.106;2022-07-29T00:37:25;21.90;86.30
45906;DHT22;31619;49.008;12.106;2022-07-29T00:39:51;22.00;85.30
45906;DHT22;31619;49.008;12.106;2022-07-29T00:42:17;21.90;85.40
45906;DHT22;31619;49.008;12.106;2022-07-29T00:44:43;21.80;87.30
45906;DHT22;31619;49.008;12.106;2022-07-29T00:47:10;21.70;88.00
45906;DHT22;31619;49.008;12.106;2022-07-29T00:49:39;21.60;88.00
45906;DHT22;31619;49.008;12.106;2022-07-29T00:52:05;21.60;87.40
45906;DHT22;31619;49.008;12.106;2022-07-29T00:54:32;21.60;87.10
45906;DHT22;31619;49.008;12.106;2022-07-29T00:56:59;21.60;87.80
45906;DHT22;31619;49.008;12.106;2022-07-29T00:59:26;21.50;89.30
45906;DHT22;31619;49.008;12.106;2022-07-29T01:01:52;21.40;89.80
45906;DHT22;31619;49.008;12.106;2022-07-29T01:04:18;21.30;90.00
45906;DHT22;31619;49.008;12.106;2022-07-29T01:06:44;21.30;89.90
45906;DHT22;31619;49.008;12.106;2022-07-29T01:09:10;21.20;90.20
45906;DHT22;31619;49.008;12.106;2022-07-29T01:11:36;21.30;88.50
45906;DHT22;31619;49.008;12.106;2022-07-29T01:14:03;21.30;88.30
45906;DHT22;31619;49.008;12.106;2022-07-29T01:30:27;21.10;90.70
45906;DHT22;31619;49.008;12.106;2022-07-29T01:32:58;21.00;90.90
45906;DHT22;31619;49.008;12.106;2022-07-29T01:35:44;20.90;91.30
45906;DHT22;31619;49.008;12.106;2022-07-29T01:38:18;20.90;91.90
45906;DHT22;31619;49.008;12.106;2022-07-29T01:40:52;20.80;92.10
45906;DHT22;31619;49.008;12.106;2022-07-29T01:43:23;20.70;92.60
45906;DHT22;31619;49.008;12.106;2022-07-29T01:48:40;20.70;92.60
45906;DHT22;31619;49.008;12.106;2022-07-29T01:51:17;20.60;92.60
45906;DHT22;31619;49.008;12.106;2022-07-29T01:53:59;20.60;92.20
45906;DHT22;31619;49.008;12.106;2022-07-29T01:56:29;20.60;92.40
45906;DHT22;31619;49.008;12.106;2022-07-29T01:58:58;20.60;92.80
45906;DHT22;31619;49.008;12.106;2022-07-29T02:01:25;20.60;92.80
45906;DHT22;31619;49.008;12.106;2022-07-29T02:03:53;20.60;92.80
45906;DHT22;31619;49.008;12.106;2022-07-29T02:06:21;20.60;92.70
45906;DHT22;31619;49.008;12.106;2022-07-29T02:08:49;20.60;93.00
45906;DHT22;31619;49.008;12.106;2022-07-29T02:11:15;20.50;93.10
45906;DHT22;31619;49.008;12.106;2022-07-29T02:13:42;20.60;93.00
45906;DHT22;31619;49.008;12.106;2022-07-29T02:16:09;20.60;93.00
45906;DHT22;31619;49.008;12.106;2022-07-29T02:18:37;20.60;93.30
45906;DHT22;31619;49.008;12.106;2022-07-29T02:21:03;20.50;93.90
45906;DHT22;31619;49.008;12.106;2022-07-29T02:23:30;20.50;94.40
45906;DHT22;31619;49.008;12.106;2022-07-29T02:25:59;20.40;94.80
45906;DHT22;31619;49.008;12.106;2022-07-29T02:28:29;20.30;94.80
45906;DHT22;31619;49.008;12.106;2022-07-29T02:31:00;20.30;95.00
45906;DHT22;31619;49.008;12.106;2022-07-29T02:33:28;20.30;95.20
45906;DHT22;31619;49.008;12.106;2022-07-29T02:35:57;20.20;95.10
45906;DHT22;31619;49.008;12.106;2022-07-29T02:38:24;20.20;95.50
45906;DHT22;31619;49.008;12.106;2022-07-29T02:41:12;20.10;95.50
45906;DHT22;31619;49.008;12.106;2022-07-29T02:43:39;20.10;96.10
45906;DHT22;31619;49.008;12.106;2022-07-29T02:46:11;20.10;96.10
45906;DHT22;31619;49.008;12.106;2022-07-29T02:48:41;20.10;96.30
45906;DHT22;31619;49.008;12.106;2022-07-29T02:51:19;20.10;96.40
45906;DHT22;31619;49.008;12.106;2022-07-29T02:53:49;20.10;96.50
45906;DHT22;31619;49.008;12.106;2022-07-29T02:56:17;20.10;96.60
45906;DHT22;31619;49.008;12.106;2022-07-29T02:58:51;20.10;96.70
45906;DHT22;31619;49.008;12.106;2022-07-29T03:01:26;20.10;96.20
45906;DHT22;31619;49.008;12.106;2022-07-29T03:03:55;20.20;95.50
45906;DHT22;31619;49.008;12.106;2022-07-29T03:06:24;20.10;95.70
45906;DHT22;31619;49.008;12.106;2022-07-29T03:08:51;20.10;96.40
45906;DHT22;31619;49.008;12.106;2022-07-29T03:11:17;20.10;96.50
45906;DHT22;31619;49.008;12.106;2022-07-29T03:13:44;20.00;96.80
45906;DHT22;31619;49.008;12.106;2022-07-29T03:16:10;20.00;96.80
45906;DHT22;31619;49.008;12.106;2022-07-29T03:18:37;20.10;96.30
45906;DHT22;31619;49.008;12.106;2022-07-29T03:21:03;20.10;96.30
45906;DHT22;31619;49.008;12.106;2022-07-29T03:23:29;20.10;96.60
45906;DHT22;31619;49.008;12.106;2022-07-29T03:25:55;20.10;96.80
45906;DHT22;31619;49.008;12.106;2022-07-29T03:28:21;20.10;96.60
45906;DHT22;31619;49.008;12.106;2022-07-29T03:30:48;20.10;96.60
45906;DHT22;31619;49.008;12.106;2022-07-29T03:33:14;20.20;96.40
45906;DHT22;31619;49.008;12.106;2022-07-29T03:35:40;20.10;96.50
45906;DHT22;31619;49.008;12.106;2022-07-29T03:38:06;20.00;96.80
45906;DHT22;31619;49.008;12.106;2022-07-29T03:40:35;20.00;97.00
45906;DHT22;31619;49.008;12.106;2022-07-29T03:43:04;20.00;97.20
45906;DHT22;31619;49.008;12.106;2022-07-29T03:45:32;20.00;97.20
45906;DHT22;31619;49.008;12.106;2022-07-29T03:48:02;20.00;97.40
45906;DHT22;31619;49.008;12.106;2022-07-29T03:50:31;20.00;96.80
45906;DHT22;31619;49.008;12.106;2022-07-29T03:52:58;20.10;96.40
45906;DHT22;31619;49.008;12.106;2022-07-29T03:55:24;20.10;95.90
45906;DHT22;31619;49.008;12.106;2022-07-29T03:57:51;20.10;95.80
45906;DHT22;31619;49.008;12.106;2022-07-29T04:00:17;20.20;95.70
45906;DHT22;31619;49.008;12.106;2022-07-29T04:02:43;20.30;95.60
45906;DHT22;31619;49.008;12.106;2022-07-29T04:05:14;20.30;95.90
45906;DHT22;31619;49.008;12.106;2022-07-29T04:07:43;20.20;95.60
45906;DHT22;31619;49.008;12.106;2022-07-29T04:10:09;20.30;95.40
45906;DHT22;31619;49.008;12.106;2022-07-29T04:12:35;20.40;95.40
45906;DHT22;31619;49.008;12.106;2022-07-29T04:15:02;20.40;95.40
45906;DHT22;31619;49.008;12.106;2022-07-29T04:17:28;20.40;95.60
45906;DHT22;31619;49.008;12.106;2022-07-29T04:19:53;20.40;96.10
45906;DHT22;31619;49.008;12.106;2022-07-29T04:22:19;20.40;95.80
45906;DHT22;31619;49.008;12.106;2022-07-29T04:24:44;20.50;95.80
45906;DHT22;31619;49.008;12.106;2022-07-29T04:27:10;20.60;95.70
45906;DHT22;31619;49.008;12.106;2022-07-29T04:29:35;20.60;96.10
45906;DHT22;31619;49.008;12.106;2022-07-29T04:32:01;20.60;96.40
45906;DHT22;31619;49.008;12.106;2022-07-29T04:34:27;20.60;96.70
45906;DHT22;31619;49.008;12.106;2022-07-29T04:36:52;20.60;96.80
45906;DHT22;31619;49.008;12.106;2022-07-29T04:39:18;20.50;96.70
45906;DHT22;31619;49.008;12.106;2022-07-29T04:41:44;20.50;96.90
45906;DHT22;31619;49.008;12.106;2022-07-29T04:44:10;20.50;96.80
45906;DHT22;31619;49.008;12.106;2022-07-29T04:46:35;20.50;96.50
45906;DHT22;31619;49.008;12.106;2022-07-29T04:49:02;20.40;96.80
45906;DHT22;31619;49.008;12.106;2022-07-29T04:51:28;20.40;96.40
45906;DHT22;31619;49.008;12.106;2022-07-29T04:53:53;20.40;97.00
45906;DHT22;31619;49.008;12.106;2022-07-29T04:56:19;20.20;97.00
45906;DHT22;31619;49.008;12.106;2022-07-29T04:58:44;20.10;97.40
45906;DHT22;31619;49.008;12.106;2022-07-29T05:01:10;20.10;97.90
45906;DHT22;31619;49.008;12.106;2022-07-29T05:03:35;20.20;97.40
45906;DHT22;31619;49.008;12.106;2022-07-29T05:06:01;20.20;97.60
45906;DHT22;31619;49.008;12.106;2022-07-29T05:08:27;20.20;96.90
45906;DHT22;31619;49.008;12.106;2022-07-29T05:10:52;20.30;97.10
45906;DHT22;31619;49.008;12.106;2022-07-29T05:13:18;20.30;96.90
45906;DHT22;31619;49.008;12.106;2022-07-29T05:15:44;20.20;96.60
45906;DHT22;31619;49.008;12.106;2022-07-29T05:18:09;20.30;96.70
45906;DHT22;31619;49.008;12.106;2022-07-29T05:20:35;20.30;97.10
45906;DHT22;31619;49.008;12.106;2022-07-29T05:23:01;20.30;96.30
45906;DHT22;31619;49.008;12.106;2022-07-29T05:25:29;20.30;95.70
45906;DHT22;31619;49.008;12.106;2022-07-29T05:27:55;20.30;96.10
45906;DHT22;31619;49.008;12.106;2022-07-29T05:30:21;20.40;95.50
45906;DHT22;31619;49.008;12.106;2022-07-29T05:32:47;20.50;95.60
45906;DHT22;31619;49.008;12.106;2022-07-29T05:35:14;20.60;98.40
45906;DHT22;31619;49.008;12.106;2022-07-29T05:37:40;20.50;98.50
45906;DHT22;31619;49.008;12.106;2022-07-29T05:40:07;20.50;99.90
45906;DHT22;31619;49.008;12.106;2022-07-29T05:42:32;20.50;96.60
45906;DHT22;31619;49.008;12.106;2022-07-29T05:44:59;20.50;96.20
45906;DHT22;31619;49.008;12.106;2022-07-29T05:47:25;20.40;96.30
45906;DHT22;31619;49.008;12.106;2022-07-29T05:49:51;20.50;95.90
45906;DHT22;31619;49.008;12.106;2022-07-29T05:52:16;20.60;95.10
45906;DHT22;31619;49.008;12.106;2022-07-29T05:54:43;20.60;95.20
45906;DHT22;31619;49.008;12.106;2022-07-29T05:57:14;20.70;94.80
45906;DHT22;31619;49.008;12.106;2022-07-29T05:59:40;20.80;94.60
45906;DHT22;31619;49.008;12.106;2022-07-29T06:02:05;20.80;94.90
45906;DHT22;31619;49.008;12.106;2022-07-29T06:04:32;20.90;94.40
45906;DHT22;31619;49.008;12.106;2022-07-29T06:06:58;21.20;93.60
45906;DHT22;31619;49.008;12.106;2022-07-29T06:09:24;21.30;93.80
45906;DHT22;31619;49.008;12.106;2022-07-29T06:11:51;21.50;93.30
45906;DHT22;31619;49.008;12.106;2022-07-29T06:14:17;21.80;93.30
45906;DHT22;31619;49.008;12.106;2022-07-29T06:16:43;22.10;92.50
45906;DHT22;31619;49.008;12.106;2022-07-29T06:19:09;22.30;91.60
45906;DHT22;31619;49.008;12.106;2022-07-29T06:21:34;22.50;90.90
45906;DHT22;31619;49.008;12.106;2022-07-29T06:24:00;22.70;91.00
45906;DHT22;31619;49.008;12.106;2022-07-29T06:26:25;22.90;90.20
45906;DHT22;31619;49.008;12.106;2022-07-29T06:28:51;23.10;89.90
45906;DHT22;31619;49.008;12.106;2022-07-29T06:31:17;23.30;88.30
45906;DHT22;31619;49.008;12.106;2022-07-29T06:33:42;23.40;87.10
45906;DHT22;31619;49.008;12.106;2022-07-29T06:36:08;23.60;87.30
45906;DHT22;31619;49.008;12.106;2022-07-29T06:38:34;23.50;87.20
45906;DHT22;31619;49.008;12.106;2022-07-29T06:41:00;23.60;86.30
45906;DHT22;31619;49.008;12.106;2022-07-29T06:46:00;23.70;85.50
45906;DHT22;31619;49.008;12.106;2022-07-29T06:48:26;23.80;85.20
45906;DHT22;31619;49.008;12.106;2022-07-29T06:50:52;23.80;85.40
45906;DHT22;31619;49.008;12.106;2022-07-29T06:53:18;23.90;85.90
45906;DHT22;31619;49.008;12.106;2022-07-29T06:55:43;24.00;84.60
45906;DHT22;31619;49.008;12.106;2022-07-29T06:58:09;24.00;84.50
45906;DHT22;31619;49.008;12.106;2022-07-29T07:00:36;24.20;83.70
45906;DHT22;31619;49.008;12.106;2022-07-29T07:03:02;24.30;81.90
45906;DHT22;31619;49.008;12.106;2022-07-29T07:05:27;24.40;82.00
45906;DHT22;31619;49.008;12.106;2022-07-29T07:07:53;24.50;83.80
45906;DHT22;31619;49.008;12.106;2022-07-29T07:10:19;24.50;81.70
45906;DHT22;31619;49.008;12.106;2022-07-29T07:12:44;24.50;82.30
45906;DHT22;31619;49.008;12.106;2022-07-29T07:15:10;24.50;82.80
45906;DHT22;31619;49.008;12.106;2022-07-29T07:17:35;24.40;81.70
45906;DHT22;31619;49.008;12.106;2022-07-29T07:20:04;24.40;82.60
45906;DHT22;31619;49.008;12.106;2022-07-29T07:22:30;24.40;81.60
45906;DHT22;31619;49.008;12.106;2022-07-29T07:24:56;24.40;81.70
45906;DHT22;31619;49.008;12.106;2022-07-29T07:27:21;24.10;81.70
45906;DHT22;31619;49.008;12.106;2022-07-29T07:29:47;24.10;84.50
45906;DHT22;31619;49.008;12.106;2022-07-29T07:32:13;24.10;84.60
45906;DHT22;31619;49.008;12.106;2022-07-29T07:34:42;24.10;85.20
45906;DHT22;31619;49.008;12.106;2022-07-29T07:37:08;24.10;85.80
45906;DHT22;31619;49.008;12.106;2022-07-29T07:39:34;24.20;85.60
45906;DHT22;31619;49.008;12.106;2022-07-29T07:42:00;24.40;85.00
45906;DHT22;31619;49.008;12.106;2022-07-29T07:44:26;24.50;84.70
45906;DHT22;31619;49.008;12.106;2022-07-29T07:46:52;24.40;85.20
45906;DHT22;31619;49.008;12.106;2022-07-29T07:49:18;24.50;85.50
45906;DHT22;31619;49.008;12.106;2022-07-29T07:51:43;24.50;84.80
45906;DHT22;31619;49.008;12.106;2022-07-29T07:54:09;24.50;84.90
45906;DHT22;31619;49.008;12.106;2022-07-29T07:56:35;24.60;88.30
45906;DHT22;31619;49.008;12.106;2022-07-29T07:59:01;24.60;83.80
45906;DHT22;31619;49.008;12.106;2022-07-29T08:01:26;24.60;85.40
45906;DHT22;31619;49.008;12.106;2022-07-29T08:03:52;24.60;85.10
45906;DHT22;31619;49.008;12.106;2022-07-29T08:06:17;24.60;86.40
45906;DHT22;31619;49.008;12.106;2022-07-29T08:08:43;24.70;85.80
45906;DHT22;31619;49.008;12.106;2022-07-29T08:11:09;24.80;85.40
45906;DHT22;31619;49.008;12.106;2022-07-29T08:13:35;25.00;84.90
45906;DHT22;31619;49.008;12.106;2022-07-29T08:16:01;25.10;85.70
45906;DHT22;31619;49.008;12.106;2022-07-29T08:18:30;25.30;84.60
45906;DHT22;31619;49.008;12.106;2022-07-29T08:20:57;25.40;84.20
45906;DHT22;31619;49.008;12.106;2022-07-29T08:23:23;25.40;82.10
45906;DHT22;31619;49.008;12.106;2022-07-29T08:25:49;25.50;83.60
45906;DHT22;31619;49.008;12.106;2022-07-29T08:28:16;25.50;84.10
45906;DHT22;31619;49.008;12.106;2022-07-29T08:30:41;25.70;83.90
45906;DHT22;31619;49.008;12.106;2022-07-29T08:33:07;25.70;82.90
45906;DHT22;31619;49.008;12.106;2022-07-29T08:35:33;25.90;81.80
45906;DHT22;31619;49.008;12.106;2022-07-29T08:37:58;26.00;82.30
45906;DHT22;31619;49.008;12.106;2022-07-29T08:40:24;26.10;83.20
45906;DHT22;31619;49.008;12.106;2022-07-29T08:42:51;26.30;84.40
45906;DHT22;31619;49.008;12.106;2022-07-29T08:45:17;26.40;83.30
45906;DHT22;31619;49.008;12.106;2022-07-29T08:47:44;26.70;82.10
45906;DHT22;31619;49.008;12.106;2022-07-29T08:50:11;27.00;82.10
45906;DHT22;31619;49.008;12.106;2022-07-29T08:52:39;27.30;79.40
45906;DHT22;31619;49.008;12.106;2022-07-29T08:55:09;27.40;79.80
45906;DHT22;31619;49.008;12.106;2022-07-29T08:57:35;27.70;79.80
45906;DHT22;31619;49.008;12.106;2022-07-29T09:00:03;27.90;79.20
45906;DHT22;31619;49.008;12.106;2022-07-29T09:02:35;28.00;77.30
45906;DHT22;31619;49.008;12.106;2022-07-29T09:05:02;28.00;77.00
45906;DHT22;31619;49.008;12.106;2022-07-29T09:07:28;28.00;77.50
45906;DHT22;31619;49.008;12.106;2022-07-29T09:09:54;28.00;76.80
45906;DHT22;31619;49.008;12.106;2022-07-29T09:12:20;28.00;76.30
45906;DHT22;31619;49.008;12.106;2022-07-29T09:14:47;28.10;76.80
45906;DHT22;31619;49.008;12.106;2022-07-29T09:17:14;28.10;76.70
45906;DHT22;31619;49.008;12.106;2022-07-29T09:19:42;28.20;76.70
45906;DHT22;31619;49.008;12.106;2022-07-29T09:22:07;28.30;76.80
45906;DHT22;31619;49.008;12.106;2022-07-29T09:27:20;28.30;75.20
45906;DHT22;31619;49.008;12.106;2022-07-29T09:29:46;28.50;75.20
45906;DHT22;31619;49.008;12.106;2022-07-29T09:32:12;28.90;73.70
45906;DHT22;31619;49.008;12.106;2022-07-29T09:34:38;29.50;72.60
45906;DHT22;31619;49.008;12.106;2022-07-29T09:37:04;31.10;69.30
45906;DHT22;31619;49.008;12.106;2022-07-29T09:39:38;32.90;62.40
45906;DHT22;31619;49.008;12.106;2022-07-29T09:42:11;34.80;59.70
45906;DHT22;31619;49.008;12.106;2022-07-29T09:44:48;36.60;55.00
45906;DHT22;31619;49.008;12.106;2022-07-29T09:47:15;38.10;51.20
45906;DHT22;31619;49.008;12.106;2022-07-29T09:52:16;38.70;48.00
45906;DHT22;31619;49.008;12.106;2022-07-29T09:54:41;39.10;47.10
45906;DHT22;31619;49.008;12.106;2022-07-29T09:57:09;40.30;45.40
45906;DHT22;31619;49.008;12.106;2022-07-29T09:59:38;41.30;44.70
45906;DHT22;31619;49.008;12.106;2022-07-29T10:02:13;42.10;42.40
45906;DHT22;31619;49.008;12.106;2022-07-29T10:04:40;42.40;41.50
45906;DHT22;31619;49.008;12.106;2022-07-29T10:07:06;42.00;43.20
45906;DHT22;31619;49.008;12.106;2022-07-29T10:09:32;41.70;42.60
45906;DHT22;31619;49.008;12.106;2022-07-29T10:12:11;41.90;42.00
45906;DHT22;31619;49.008;12.106;2022-07-29T10:14:41;42.30;41.60
45906;DHT22;31619;49.008;12.106;2022-07-29T10:17:08;42.60;41.50
45906;DHT22;31619;49.008;12.106;2022-07-29T10:19:35;43.20;40.80
45906;DHT22;31619;49.008;12.106;2022-07-29T10:22:05;43.90;39.40
45906;DHT22;31619;49.008;12.106;2022-07-29T10:24:31;43.70;39.20
45906;DHT22;31619;49.008;12.106;2022-07-29T10:26:59;43.90;39.30
45906;DHT22;31619;49.008;12.106;2022-07-29T10:29:25;43.70;39.20
45906;DHT22;31619;49.008;12.106;2022-07-29T10:37:23;43.10;39.30
45906;DHT22;31619;49.008;12.106;2022-07-29T10:40:15;43.20;39.50
45906;DHT22;31619;49.008;12.106;2022-07-29T10:43:31;42.60;39.10
45906;DHT22;31619;49.008;12.106;2022-07-29T10:45:57;42.80;39.70
45906;DHT22;31619;49.008;12.106;2022-07-29T10:48:23;42.90;39.70
45906;DHT22;31619;49.008;12.106;2022-07-29T10:53:20;44.60;37.90
45906;DHT22;31619;49.008;12.106;2022-07-29T10:55:46;45.10;37.30
45906;DHT22;31619;49.008;12.106;2022-07-29T10:58:22;45.00;37.00
45906;DHT22;31619;49.008;12.106;2022-07-29T11:00:52;44.50;37.60
45906;DHT22;31619;49.008;12.106;2022-07-29T11:06:07;43.70;37.80
45906;DHT22;31619;49.008;12.106;2022-07-29T11:08:33;43.90;37.90
45906;DHT22;31619;49.008;12.106;2022-07-29T11:13:52;41.70;40.10
45906;DHT22;31619;49.008;12.106;2022-07-29T11:16:21;41.00;40.90
45906;DHT22;31619;49.008;12.106;2022-07-29T11:21:40;40.10;42.90
45906;DHT22;31619;49.008;12.106;2022-07-29T11:24:23;40.30;43.10
45906;DHT22;31619;49.008;12.106;2022-07-29T11:29:39;40.70;42.20
45906;DHT22;31619;49.008;12.106;2022-07-29T11:32:13;40.30;42.50
45906;DHT22;31619;49.008;12.106;2022-07-29T11:34:44;40.30;42.20
45906;DHT22;31619;49.008;12.106;2022-07-29T11:39:38;39.90;41.10
45906;DHT22;31619;49.008;12.106;2022-07-29T11:45:02;38.90;44.20
45906;DHT22;31619;49.008;12.106;2022-07-29T11:47:33;38.20;45.00
45906;DHT22;31619;49.008;12.106;2022-07-29T11:50:00;37.60;46.20
45906;DHT22;31619;49.008;12.106;2022-07-29T11:52:43;37.20;46.50
45906;DHT22;31619;49.008;12.106;2022-07-29T11:55:12;37.00;46.90
45906;DHT22;31619;49.008;12.106;2022-07-29T11:58:06;36.60;47.60
45906;DHT22;31619;49.008;12.106;2022-07-29T12:00:37;36.20;48.20
45906;DHT22;31619;49.008;12.106;2022-07-29T12:03:05;35.90;48.90
45906;DHT22;31619;49.008;12.106;2022-07-29T12:05:36;35.90;49.00
45906;DHT22;31619;49.008;12.106;2022-07-29T12:08:10;36.40;48.10
45906;DHT22;31619;49.008;12.106;2022-07-29T12:10:37;37.50;47.50
45906;DHT22;31619;49.008;12.106;2022-07-29T12:13:03;38.00;46.20
45906;DHT22;31619;49.008;12.106;2022-07-29T12:15:29;38.20;45.90
45906;DHT22;31619;49.008;12.106;2022-07-29T12:17:54;38.50;45.10
45906;DHT22;31619;49.008;12.106;2022-07-29T12:20:29;38.20;44.80
45906;DHT22;31619;49.008;12.106;2022-07-29T12:22:55;37.60;46.00
45906;DHT22;31619;49.008;12.106;2022-07-29T12:25:23;37.10;45.90
45906;DHT22;31619;49.008;12.106;2022-07-29T12:27:59;36.80;46.90
45906;DHT22;31619;49.008;12.106;2022-07-29T12:30:35;36.90;46.20
45906;DHT22;31619;49.008;12.106;2022-07-29T12:33:13;37.10;45.70
45906;DHT22;31619;49.008;12.106;2022-07-29T12:35:41;36.40;47.20
45906;DHT22;31619;49.008;12.106;2022-07-29T12:38:10;35.80;48.40
45906;DHT22;31619;49.008;12.106;2022-07-29T12:40:36;35.30;49.10
45906;DHT22;31619;49.008;12.106;2022-07-29T12:43:06;35.10;49.00
45906;DHT22;31619;49.008;12.106;2022-07-29T12:45:36;34.80;49.90
45906;DHT22;31619;49.008;12.106;2022-07-29T12:48:02;34.50;50.20
45906;DHT22;31619;49.008;12.106;2022-07-29T12:50:28;34.40;50.40
45906;DHT22;31619;49.008;12.106;2022-07-29T12:52:54;34.50;50.00
45906;DHT22;31619;49.008;12.106;2022-07-29T12:55:46;34.50;49.60
45906;DHT22;31619;49.008;12.106;2022-07-29T12:58:40;34.50;49.10
45906;DHT22;31619;49.008;12.106;2022-07-29T13:01:16;34.20;50.80
45906;DHT22;31619;49.008;12.106;2022-07-29T13:11:42;36.40;48.10
45906;DHT22;31619;49.008;12.106;2022-07-29T13:14:10;38.50;45.50
45906;DHT22;31619;49.008;12.106;2022-07-29T13:17:29;40.10;43.60
45906;DHT22;31619;49.008;12.106;2022-07-29T13:20:03;41.20;42.90
45906;DHT22;31619;49.008;12.106;2022-07-29T13:22:29;42.40;41.90
45906;DHT22;31619;49.008;12.106;2022-07-29T13:24:57;42.30;40.40
45906;DHT22;31619;49.008;12.106;2022-07-29T13:27:28;41.50;40.20
45906;DHT22;31619;49.008;12.106;2022-07-29T13:29:55;40.70;41.10
45906;DHT22;31619;49.008;12.106;2022-07-29T13:32:25;39.50;42.60
45906;DHT22;31619;49.008;12.106;2022-07-29T13:34:52;38.60;43.80
45906;DHT22;31619;49.008;12.106;2022-07-29T13:37:18;38.00;44.50
45906;DHT22;31619;49.008;12.106;2022-07-29T13:39:44;37.80;44.40
45906;DHT22;31619;49.008;12.106;2022-07-29T13:42:09;37.90;44.30
45906;DHT22;31619;49.008;12.106;2022-07-29T13:44:35;38.30;45.10
45906;DHT22;31619;49.008;12.106;2022-07-29T13:47:01;39.00;45.00
45906;DHT22;31619;49.008;12.106;2022-07-29T13:49:28;40.70;42.10
45906;DHT22;31619;49.008;12.106;2022-07-29T13:51:54;42.50;40.60
45906;DHT22;31619;49.008;12.106;2022-07-29T13:54:20;44.10;38.90
45906;DHT22;31619;49.008;12.106;2022-07-29T13:56:45;45.20;36.50
45906;DHT22;31619;49.008;12.106;2022-07-29T13:59:11;45.00;37.00
45906;DHT22;31619;49.008;12.106;2022-07-29T14:01:38;43.90;36.90
45906;DHT22;31619;49.008;12.106;2022-07-29T14:04:07;42.80;38.60
45906;DHT22;31619;49.008;12.106;2022-07-29T14:06:32;41.30;39.80
45906;DHT22;31619;49.008;12.106;2022-07-29T14:08:58;40.00;41.10
45906;DHT22;31619;49.008;12.106;2022-07-29T14:11:24;38.70;44.10
45906;DHT22;31619;49.008;12.106;2022-07-29T14:13:50;37.60;43.70
45906;DHT22;31619;49.008;12.106;2022-07-29T14:16:15;36.70;45.90
45906;DHT22;31619;49.008;12.106;2022-07-29T14:18:41;36.40;47.70
45906;DHT22;31619;49.008;12.106;2022-07-29T14:21:07;35.90;47.60
45906;DHT22;31619;49.008;12.106;2022-07-29T14:23:32;35.70;47.70
45906;DHT22;31619;49.008;12.106;2022-07-29T14:25:58;35.40;47.70
45906;DHT22;31619;49.008;12.106;2022-07-29T14:28:23;34.50;48.70
45906;DHT22;31619;49.008;12.106;2022-07-29T14:30:49;34.00;49.70
45906;DHT22;31619;49.008;12.106;2022-07-29T14:33:15;33.70;50.20
45906;DHT22;31619;49.008;12.106;2022-07-29T14:35:40;33.30;50.90
45906;DHT22;31619;49.008;12.106;2022-07-29T14:38:06;32.80;51.90
45906;DHT22;31619;49.008;12.106;2022-07-29T14:40:32;32.40;52.60
45906;DHT22;31619;49.008;12.106;2022-07-29T14:42:58;32.20;52.80
45906;DHT22;31619;49.008;12.106;2022-07-29T14:45:24;32.00;54.00
45906;DHT22;31619;49.008;12.106;2022-07-29T14:47:50;31.90;52.90
45906;DHT22;31619;49.008;12.106;2022-07-29T14:50:16;31.90;54.10
45906;DHT22;31619;49.008;12.106;2022-07-29T14:52:42;31.90;64.30
45906;DHT22;31619;49.008;12.106;2022-07-29T14:55:08;31.80;57.30
45906;DHT22;31619;49.008;12.106;2022-07-29T14:57:34;31.50;61.90
45906;DHT22;31619;49.008;12.106;2022-07-29T15:00:00;31.00;59.10
45906;DHT22;31619;49.008;12.106;2022-07-29T15:02:26;30.80;60.80
45906;DHT22;31619;49.008;12.106;2022-07-29T15:04:52;30.60;58.00
45906;DHT22;31619;49.008;12.106;2022-07-29T15:07:17;30.60;56.50
45906;DHT22;31619;49.008;12.106;2022-07-29T15:09:43;30.80;55.30
45906;DHT22;31619;49.008;12.106;2022-07-29T15:12:10;31.10;57.60
45906;DHT22;31619;49.008;12.106;2022-07-29T15:14:36;31.20;58.30
45906;DHT22;31619;49.008;12.106;2022-07-29T15:17:02;31.10;59.10
45906;DHT22;31619;49.008;12.106;2022-07-29T15:19:28;30.90;59.60
45906;DHT22;31619;49.008;12.106;2022-07-29T15:21:54;30.70;60.50
45906;DHT22;31619;49.008;12.106;2022-07-29T15:24:19;30.30;61.20
45906;DHT22;31619;49.008;12.106;2022-07-29T15:26:46;30.10;62.00
45906;DHT22;31619;49.008;12.106;2022-07-29T15:29:12;29.80;62.00
45906;DHT22;31619;49.008;12.106;2022-07-29T15:31:37;29.70;62.10
45906;DHT22;31619;49.008;12.106;2022-07-29T15:34:03;29.50;63.00
45906;DHT22;31619;49.008;12.106;2022-07-29T15:36:29;29.30;63.40
45906;DHT22;31619;49.008;12.106;2022-07-29T15:38:55;29.20;65.60
45906;DHT22;31619;49.008;12.106;2022-07-29T15:41:21;29.20;64.50
45906;DHT22;31619;49.008;12.106;2022-07-29T15:43:47;29.20;64.20
45906;DHT22;31619;49.008;12.106;2022-07-29T15:46:15;29.50;64.00
45906;DHT22;31619;49.008;12.106;2022-07-29T15:49:00;29.80;64.00
45906;DHT22;31619;49.008;12.106;2022-07-29T15:51:27;30.10;63.70
45906;DHT22;31619;49.008;12.106;2022-07-29T15:53:52;30.10;64.00
45906;DHT22;31619;49.008;12.106;2022-07-29T15:56:18;30.10;63.70
45906;DHT22;31619;49.008;12.106;2022-07-29T15:58:44;30.10;64.10
45906;DHT22;31619;49.008;12.106;2022-07-29T16:01:10;30.10;64.30
45906;DHT22;31619;49.008;12.106;2022-07-29T16:03:36;30.10;64.00
45906;DHT22;31619;49.008;12.106;2022-07-29T16:06:02;29.90;64.60
45906;DHT22;31619;49.008;12.106;2022-07-29T16:08:27;29.80;65.00
45906;DHT22;31619;49.008;12.106;2022-07-29T16:10:53;29.70;66.00
45906;DHT22;31619;49.008;12.106;2022-07-29T16:13:18;29.40;65.50
45906;DHT22;31619;49.008;12.106;2022-07-29T16:15:44;29.10;65.50